Time;durP1;ratioP1;P1;durP2;ratioP2;P2;SDS_P1;SDS_P2;PMS_P1;PMS_P2;Temp;Humidity;BMP_temperature;BMP_pressure;BME280_temperature;BME280_humidity;BME280_pressure;Samples;Min_cycle;Max_cycle;Signal;HPM_P1;HPM_P2
2023/12/13 00:02:17;;;;;;;2.13;1.30;;;10.30;99.90;;;;;;5073226;28;20174;-69
2023/12/13 00:04:43;;;;;;;1.00;0.87;;;10.40;99.90;;;;;;5072780;28;20414;-68
2023/12/13 00:07:08;;;;;;;2.20;1.00;;;10.50;99.90;;;;;;5072840;28;20233;-68
2023/12/13 00:09:34;;;;;;;1.53;0.90;;;10.50;99.90;;;;;;5072730;28;20183;-68
2023/12/13 00:11:59;;;;;;;1.07;0.60;;;10.50;99.90;;;;;;5071991;28;20171;-68
2023/12/13 00:14:25;;;;;;;1.17;0.77;;;10.40;99.90;;;;;;5072670;28;20174;-68
2023/12/13 00:16:51;;;;;;;1.80;0.80;;;10.30;99.90;;;;;;5072588;28;20229;-68
2023/12/13 00:19:16;;;;;;;1.63;0.80;;;10.30;99.90;;;;;;5073004;28;20172;-68
2023/12/13 00:21:42;;;;;;;1.50;0.80;;;10.30;99.90;;;;;;5072917;28;20169;-68
2023/12/13 00:24:08;;;;;;;2.20;0.77;;;10.30;99.90;;;;;;5109036;28;20199;-68
2023/12/13 00:26:35;;;;;;;2.10;0.63;;;10.40;99.90;;;;;;5117414;28;20406;-68
2023/12/13 00:29:00;;;;;;;1.60;0.80;;;10.40;99.90;;;;;;5117433;28;20447;-67
2023/12/13 00:31:26;;;;;;;2.60;0.90;;;10.20;99.90;;;;;;5117017;28;20412;-69
2023/12/13 00:33:51;;;;;;;1.73;0.73;;;10.30;99.90;;;;;;5116941;28;20246;-68
2023/12/13 00:36:17;;;;;;;0.90;0.67;;;10.10;99.90;;;;;;5117247;28;20172;-69
2023/12/13 00:38:42;;;;;;;1.97;0.80;;;10.10;99.90;;;;;;5117102;28;20220;-68
2023/12/13 00:41:08;;;;;;;1.90;0.93;;;10.10;99.90;;;;;;5116938;28;20308;-69
2023/12/13 00:43:33;;;;;;;2.17;0.70;;;10.00;99.90;;;;;;5116739;28;20239;-69
2023/12/13 00:45:59;;;;;;;1.17;0.83;;;9.90;99.90;;;;;;5116759;28;20176;-69
2023/12/13 00:48:24;;;;;;;1.40;0.90;;;9.80;99.90;;;;;;5116808;28;20177;-69
2023/12/13 00:50:50;;;;;;;2.47;0.90;;;9.70;99.90;;;;;;5116728;28;20198;-68
2023/12/13 00:53:15;;;;;;;1.17;0.97;;;9.60;99.90;;;;;;5116846;28;20189;-69
2023/12/13 00:55:41;;;;;;;2.60;1.17;;;9.50;99.90;;;;;;5116546;28;20167;-69
2023/12/13 00:58:07;;;;;;;0.90;0.60;;;9.40;99.90;;;;;;5116477;28;20190;-69
2023/12/13 01:00:32;;;;;;;1.43;1.10;;;9.30;99.90;;;;;;5116603;28;20168;-68
2023/12/13 01:02:58;;;;;;;2.37;0.93;;;9.20;99.90;;;;;;5116767;28;20209;-68
2023/12/13 01:05:23;;;;;;;2.73;1.50;;;9.30;99.90;;;;;;5116398;28;20227;-69
2023/12/13 01:07:49;;;;;;;3.60;0.80;;;9.20;99.90;;;;;;5116521;28;20196;-68
2023/12/13 01:10:14;;;;;;;1.50;0.80;;;9.10;99.90;;;;;;5116413;28;20174;-68
2023/12/13 01:12:43;;;;;;;1.20;1.10;;;9.00;99.90;;;;;;5116852;28;20244;-68
2023/12/13 01:15:10;;;;;;;2.80;1.17;;;9.00;99.90;;;;;;5116552;28;20169;-68
2023/12/13 01:17:36;;;;;;;1.33;0.77;;;9.10;99.90;;;;;;5116124;28;20539;-69
2023/12/13 01:20:02;;;;;;;0.90;0.70;;;9.10;99.90;;;;;;5116177;28;20486;-68
2023/12/13 01:22:27;;;;;;;3.57;1.20;;;9.00;99.90;;;;;;5116065;28;20733;-68
2023/12/13 01:24:53;;;;;;;1.50;0.80;;;9.10;99.90;;;;;;5116597;28;20473;-69
2023/12/13 01:27:19;;;;;;;0.90;0.80;;;9.00;99.90;;;;;;5116324;28;20518;-69
2023/12/13 01:29:44;;;;;;;0.80;0.63;;;9.00;99.90;;;;;;5097736;28;20169;-68
2023/12/13 01:32:10;;;;;;;1.70;0.90;;;9.00;99.90;;;;;;5116169;28;20326;-69
2023/12/13 01:34:36;;;;;;;0.83;0.60;;;9.00;99.90;;;;;;5116267;28;20210;-69
2023/12/13 01:37:02;;;;;;;1.93;0.90;;;9.00;99.90;;;;;;5114422;28;20413;-68
2023/12/13 01:39:27;;;;;;;1.23;0.87;;;9.00;99.90;;;;;;5115752;28;20162;-68
2023/12/13 01:41:53;;;;;;;1.07;0.80;;;9.00;99.90;;;;;;5115986;28;20159;-69
2023/12/13 01:44:18;;;;;;;1.03;0.60;;;9.00;99.90;;;;;;5115667;28;20181;-68
2023/12/13 01:46:45;;;;;;;1.70;0.73;;;9.00;99.90;;;;;;5115856;28;20525;-69
2023/12/13 01:49:12;;;;;;;1.90;0.97;;;9.00;99.90;;;;;;5116214;28;20250;-69
2023/12/13 01:51:39;;;;;;;1.20;1.00;;;9.00;99.90;;;;;;5115484;28;20412;-69
2023/12/13 01:54:09;;;;;;;3.50;1.20;;;9.00;99.90;;;;;;5114965;28;20427;-68
2023/12/13 01:56:38;;;;;;;1.40;0.70;;;9.00;99.90;;;;;;5115519;28;20407;-68
2023/12/13 01:59:04;;;;;;;1.13;0.80;;;9.10;99.90;;;;;;5115360;28;20811;-68
2023/12/13 02:01:29;;;;;;;1.93;0.90;;;9.20;99.90;;;;;;5115666;28;20402;-68
2023/12/13 02:03:56;;;;;;;3.40;0.90;;;9.20;99.90;;;;;;5116395;28;20422;-68
2023/12/13 02:06:21;;;;;;;1.00;0.70;;;9.10;99.90;;;;;;5115384;28;20211;-68
2023/12/13 02:08:47;;;;;;;2.80;0.80;;;9.10;99.90;;;;;;5097966;28;20834;-68
2023/12/13 02:11:13;;;;;;;2.33;0.90;;;9.00;99.90;;;;;;5094877;28;20202;-68
2023/12/13 02:13:39;;;;;;;2.80;1.00;;;8.90;99.90;;;;;;5094853;28;20226;-68
2023/12/13 02:16:05;;;;;;;2.03;0.90;;;8.90;99.90;;;;;;5100724;28;20398;-68
2023/12/13 02:18:31;;;;;;;3.27;0.90;;;8.90;99.90;;;;;;5115329;28;20438;-67
2023/12/13 02:20:56;;;;;;;1.00;0.60;;;8.90;99.90;;;;;;5115266;28;20492;-69
2023/12/13 02:23:22;;;;;;;1.63;1.00;;;8.90;99.90;;;;;;5115111;28;20200;-69
2023/12/13 02:25:59;;;;;;;1.00;0.63;;;8.90;99.90;;;;;;5111601;28;20166;-69
2023/12/13 02:28:26;;;;;;;2.00;1.00;;;8.90;99.90;;;;;;5094833;28;20185;-69
2023/12/13 02:30:55;;;;;;;1.23;0.70;;;8.90;99.90;;;;;;5093407;28;20936;-69
2023/12/13 02:33:28;;;;;;;3.80;0.90;;;8.90;99.90;;;;;;5094283;28;20424;-69
2023/12/13 02:35:56;;;;;;;3.30;0.80;;;8.90;99.90;;;;;;5098646;28;20542;-68
2023/12/13 02:38:22;;;;;;;4.00;0.93;;;8.90;99.90;;;;;;5114654;28;20451;-69
2023/12/13 02:40:47;;;;;;;2.10;0.67;;;9.00;99.90;;;;;;5114927;28;20911;-68
2023/12/13 02:43:13;;;;;;;1.73;0.90;;;9.00;99.90;;;;;;5114719;28;20193;-68
2023/12/13 02:45:39;;;;;;;1.00;0.63;;;9.00;99.90;;;;;;5112746;28;20171;-69
2023/12/13 02:48:04;;;;;;;1.90;0.87;;;8.90;99.90;;;;;;5093707;28;20175;-68
2023/12/13 02:50:30;;;;;;;1.70;0.80;;;9.00;99.90;;;;;;5094138;28;20167;-68
2023/12/13 02:52:56;;;;;;;3.63;0.77;;;8.90;99.90;;;;;;5094232;28;20196;-69
2023/12/13 02:55:21;;;;;;;2.60;1.50;;;9.10;99.90;;;;;;5094054;28;20178;-68
2023/12/13 02:57:47;;;;;;;2.90;0.80;;;9.10;99.90;;;;;;5113484;28;20199;-68
2023/12/13 03:00:13;;;;;;;3.33;1.43;;;9.10;99.90;;;;;;5114172;28;20165;-68
2023/12/13 03:02:39;;;;;;;2.80;0.80;;;9.10;99.90;;;;;;5114190;28;20191;-68
2023/12/13 03:05:06;;;;;;;5.40;0.93;;;9.10;99.90;;;;;;5114230;28;20413;-68
2023/12/13 03:07:31;;;;;;;1.60;1.00;;;9.10;99.90;;;;;;5096661;28;20407;-68
2023/12/13 03:09:57;;;;;;;2.17;0.80;;;9.20;99.90;;;;;;5093703;28;20418;-68
2023/12/13 03:12:23;;;;;;;2.40;1.00;;;9.20;99.90;;;;;;5093570;28;20205;-69
2023/12/13 03:14:48;;;;;;;2.37;0.83;;;9.20;99.90;;;;;;5093820;28;20196;-68
2023/12/13 03:17:14;;;;;;;1.33;0.80;;;9.30;99.90;;;;;;5108254;28;20603;-68
2023/12/13 03:19:39;;;;;;;4.93;1.10;;;9.40;99.90;;;;;;5114024;28;20167;-68
2023/12/13 03:22:05;;;;;;;2.63;0.80;;;9.30;99.90;;;;;;5113991;28;20252;-68
2023/12/13 03:24:31;;;;;;;1.33;0.60;;;9.30;99.90;;;;;;5114105;28;20166;-68
2023/12/13 03:26:56;;;;;;;1.77;0.70;;;9.50;99.90;;;;;;5102073;28;20409;-68
2023/12/13 03:29:22;;;;;;;2.37;0.97;;;9.60;99.90;;;;;;5093626;28;20167;-69
2023/12/13 03:31:47;;;;;;;3.30;0.80;;;9.70;99.90;;;;;;5093352;28;20164;-68
2023/12/13 03:34:14;;;;;;;3.73;1.20;;;9.50;99.90;;;;;;5106685;28;20193;-68
2023/12/13 03:36:40;;;;;;;1.00;0.70;;;9.20;99.90;;;;;;5104185;28;20173;-68
2023/12/13 03:39:07;;;;;;;1.83;0.80;;;9.00;99.90;;;;;;5093253;28;20866;-68
2023/12/13 03:41:33;;;;;;;1.70;0.80;;;9.00;99.90;;;;;;5093249;28;20167;-69
2023/12/13 03:43:58;;;;;;;2.30;0.90;;;9.00;99.90;;;;;;5094234;28;20433;-68
2023/12/13 03:46:24;;;;;;;2.03;0.87;;;9.10;99.90;;;;;;5100534;28;20662;-68
2023/12/13 03:48:49;;;;;;;2.30;1.10;;;9.30;99.90;;;;;;5114643;28;20209;-69
2023/12/13 03:51:15;;;;;;;6.20;1.33;;;9.50;99.90;;;;;;5113870;28;20538;-69
2023/12/13 03:53:42;;;;;;;2.77;1.10;;;9.60;99.90;;;;;;5113345;28;20330;-69
2023/12/13 03:56:09;;;;;;;2.80;0.80;;;9.60;99.90;;;;;;5108809;28;20180;-67
2023/12/13 03:58:34;;;;;;;1.13;0.90;;;9.60;99.90;;;;;;5095652;28;20450;-68
2023/12/13 04:01:00;;;;;;;2.73;1.10;;;9.60;99.90;;;;;;5096577;28;20417;-69
2023/12/13 04:03:26;;;;;;;2.23;0.83;;;9.60;99.90;;;;;;5097462;28;20720;-69
2023/12/13 04:05:52;;;;;;;3.73;1.20;;;9.50;99.90;;;;;;5099814;28;20190;-69
2023/12/13 04:08:17;;;;;;;1.77;0.87;;;9.40;99.90;;;;;;5117689;28;20582;-68
2023/12/13 04:10:43;;;;;;;1.50;1.10;;;9.20;99.90;;;;;;5117849;28;20170;-69
2023/12/13 04:13:09;;;;;;;1.20;0.80;;;9.10;99.90;;;;;;5117889;28;20189;-68
2023/12/13 04:15:34;;;;;;;1.50;1.00;;;9.00;99.90;;;;;;5117939;28;20180;-69
2023/12/13 04:18:00;;;;;;;0.90;0.73;;;9.00;99.90;;;;;;5097039;28;20220;-71
2023/12/13 04:20:25;;;;;;;3.73;1.30;;;8.90;99.90;;;;;;5097816;28;20257;-68
2023/12/13 04:22:51;;;;;;;3.27;0.80;;;8.90;99.90;;;;;;5104098;28;20287;-69
2023/12/13 04:25:16;;;;;;;1.60;0.93;;;8.90;99.90;;;;;;5117385;28;20171;-69
2023/12/13 04:27:43;;;;;;;4.27;1.30;;;8.90;99.90;;;;;;5083880;22;20256;-70
2023/12/13 04:30:11;;;;;;;1.70;0.87;;;8.90;99.90;;;;;;5036789;28;20258;-70
2023/12/13 04:32:37;;;;;;;3.13;0.80;;;8.90;99.90;;;;;;5036408;28;20444;-68
2023/12/13 04:35:03;;;;;;;2.63;1.07;;;8.80;99.90;;;;;;5036505;28;20418;-69
2023/12/13 04:37:29;;;;;;;4.27;0.97;;;8.80;99.90;;;;;;5046987;28;20441;-68
2023/12/13 04:39:54;;;;;;;3.37;0.80;;;8.80;99.90;;;;;;5056562;28;20519;-69
2023/12/13 04:42:20;;;;;;;1.83;0.70;;;8.90;99.90;;;;;;5056305;28;20463;-69
2023/12/13 04:44:45;;;;;;;1.67;0.97;;;8.80;99.90;;;;;;5054919;28;20166;-69
2023/12/13 04:47:11;;;;;;;2.40;1.00;;;8.70;99.90;;;;;;5047909;28;20622;-69
2023/12/13 04:49:37;;;;;;;2.87;0.97;;;8.70;99.90;;;;;;5036192;28;20169;-69
2023/12/13 04:52:03;;;;;;;1.20;0.70;;;8.80;99.90;;;;;;5036082;28;20161;-69
2023/12/13 04:54:29;;;;;;;8.20;1.27;;;8.80;99.90;;;;;;5036071;28;20179;-68
2023/12/13 04:56:55;;;;;;;2.27;1.53;;;8.80;99.90;;;;;;5041786;28;20426;-68
2023/12/13 04:59:20;;;;;;;2.30;0.90;;;8.80;99.90;;;;;;5056253;28;20451;-69
2023/12/13 05:01:46;;;;;;;1.67;0.80;;;8.90;99.90;;;;;;5055854;28;20642;-69
2023/12/13 05:04:11;;;;;;;3.20;0.90;;;8.80;99.90;;;;;;5055845;28;20635;-69
2023/12/13 05:06:37;;;;;;;1.13;0.70;;;8.80;99.90;;;;;;5052773;28;20259;-69
2023/12/13 05:09:03;;;;;;;1.93;1.17;;;8.70;99.90;;;;;;5035758;28;20306;-69
2023/12/13 05:11:28;;;;;;;1.97;1.10;;;8.90;99.90;;;;;;5035566;28;20189;-68
2023/12/13 05:13:54;;;;;;;2.27;1.10;;;8.90;99.90;;;;;;5035755;28;20635;-69
2023/12/13 05:16:20;;;;;;;2.40;1.17;;;9.00;99.90;;;;;;5036476;28;20197;-69
2023/12/13 05:18:45;;;;;;;1.93;1.00;;;9.10;99.90;;;;;;5055686;28;20806;-69
2023/12/13 05:21:11;;;;;;;2.07;1.10;;;9.00;99.90;;;;;;5037161;28;20189;-69
2023/12/13 05:23:37;;;;;;;2.77;0.93;;;9.10;99.90;;;;;;5024747;28;20707;-68
2023/12/13 05:26:02;;;;;;;1.60;1.00;;;9.20;99.90;;;;;;5026085;28;20208;-68
2023/12/13 05:28:28;;;;;;;1.67;1.20;;;9.30;99.90;;;;;;5026113;28;20191;-68
2023/12/13 05:30:54;;;;;;;2.07;1.23;;;9.40;99.90;;;;;;5026359;28;20227;-68
2023/12/13 05:33:19;;;;;;;1.90;0.60;;;9.40;99.90;;;;;;5025999;28;20403;-68
2023/12/13 05:35:45;;;;;;;1.90;0.97;;;9.30;99.90;;;;;;5025836;28;20190;-68
2023/12/13 05:38:10;;;;;;;0.70;0.50;;;9.40;99.90;;;;;;5025738;28;20638;-68
2023/12/13 05:40:36;;;;;;;1.20;0.70;;;9.30;99.90;;;;;;5028483;28;20207;-69
2023/12/13 05:43:01;;;;;;;1.60;0.63;;;9.20;99.90;;;;;;5055037;28;20166;-68
2023/12/13 05:45:27;;;;;;;0.90;0.50;;;9.30;99.90;;;;;;5055620;28;20219;-68
2023/12/13 05:47:53;;;;;;;1.53;0.60;;;9.30;99.90;;;;;;5041965;28;20192;-69
2023/12/13 05:50:19;;;;;;;2.13;0.90;;;9.30;99.90;;;;;;5034944;28;20651;-69
2023/12/13 05:52:44;;;;;;;0.97;0.83;;;9.30;99.90;;;;;;5035280;28;20178;-69
2023/12/13 05:55:11;;;;;;;4.27;1.20;;;9.40;99.90;;;;;;5031292;28;20198;-69
2023/12/13 05:57:37;;;;;;;1.83;1.03;;;9.40;99.90;;;;;;5035772;28;20185;-69
2023/12/13 06:00:06;;;;;;;1.40;1.00;;;9.50;99.90;;;;;;5054676;28;20412;-69
2023/12/13 06:02:35;;;;;;;2.03;1.30;;;9.50;99.90;;;;;;5051566;28;20415;-69
2023/12/13 06:05:02;;;;;;;1.90;1.10;;;9.50;99.90;;;;;;5054889;28;20398;-69
2023/12/13 06:07:28;;;;;;;1.30;0.90;;;9.50;99.90;;;;;;5040543;28;20806;-68
2023/12/13 06:09:54;;;;;;;2.03;1.10;;;9.50;99.90;;;;;;5014906;28;20896;-69
2023/12/13 06:12:19;;;;;;;2.47;0.90;;;9.40;99.90;;;;;;5015002;28;20475;-69
2023/12/13 06:14:45;;;;;;;1.37;1.00;;;9.50;99.90;;;;;;5014933;28;20169;-69
2023/12/13 06:17:10;;;;;;;1.23;1.03;;;9.40;99.90;;;;;;5027751;28;20668;-69
2023/12/13 06:19:36;;;;;;;3.70;1.03;;;9.50;99.90;;;;;;5041736;28;20185;-69
2023/12/13 06:22:02;;;;;;;4.53;1.30;;;9.50;99.90;;;;;;5033757;28;20613;-69
2023/12/13 06:24:28;;;;;;;6.60;1.57;;;9.50;99.90;;;;;;5034568;28;20524;-69
2023/12/13 06:26:54;;;;;;;2.20;0.90;;;9.50;99.90;;;;;;5041361;28;20530;-69
2023/12/13 06:29:19;;;;;;;1.80;1.07;;;9.60;99.90;;;;;;5036666;28;20646;-69
2023/12/13 06:31:45;;;;;;;2.50;0.80;;;9.70;99.90;;;;;;5014436;28;20406;-69
2023/12/13 06:34:11;;;;;;;3.30;1.20;;;9.60;99.90;;;;;;5018947;28;20224;-69
2023/12/13 06:36:36;;;;;;;2.93;1.00;;;9.60;99.90;;;;;;5035409;28;20583;-69
2023/12/13 06:39:07;;;;;;;1.60;0.90;;;9.60;99.90;;;;;;5054162;28;20237;-69
2023/12/13 06:41:33;;;;;;;4.60;0.90;;;9.70;99.90;;;;;;5053933;28;20575;-69
2023/12/13 06:43:59;;;;;;;1.60;1.00;;;9.80;99.90;;;;;;5054096;28;20417;-69
2023/12/13 06:46:24;;;;;;;1.60;0.90;;;9.80;99.90;;;;;;5054061;28;20764;-69
2023/12/13 06:48:51;;;;;;;1.00;0.67;;;9.70;99.90;;;;;;5053760;28;20178;-69
2023/12/13 06:51:17;;;;;;;2.70;0.80;;;9.80;99.90;;;;;;5053742;28;20249;-69
2023/12/13 06:53:44;;;;;;;3.00;0.90;;;9.80;99.90;;;;;;5053552;28;20413;-69
2023/12/13 06:56:10;;;;;;;2.23;1.10;;;9.70;99.90;;;;;;5053946;28;20411;-70
2023/12/13 06:58:35;;;;;;;2.40;1.27;;;9.70;99.90;;;;;;5053527;28;20841;-68
2023/12/13 07:01:01;;;;;;;2.03;0.90;;;9.60;99.90;;;;;;5054077;28;20172;-69
2023/12/13 07:03:27;;;;;;;3.00;1.20;;;9.60;99.90;;;;;;5053286;28;20169;-69
2023/12/13 07:05:53;;;;;;;2.30;1.20;;;9.60;99.90;;;;;;5053315;28;20195;-69
2023/12/13 07:08:18;;;;;;;2.30;0.80;;;9.60;99.90;;;;;;5052879;28;20194;-69
2023/12/13 07:10:44;;;;;;;3.63;0.80;;;9.60;99.90;;;;;;5052875;28;20404;-69
2023/12/13 07:13:10;;;;;;;1.30;0.80;;;9.70;99.90;;;;;;5053228;28;20660;-69
2023/12/13 07:15:35;;;;;;;1.67;0.90;;;9.70;99.90;;;;;;5053617;28;20169;-69
2023/12/13 07:18:01;;;;;;;2.43;1.00;;;9.80;99.90;;;;;;5053013;28;20204;-69
2023/12/13 07:20:26;;;;;;;1.47;0.90;;;9.70;99.90;;;;;;5053271;28;20216;-69
2023/12/13 07:22:52;;;;;;;2.30;0.90;;;9.80;99.90;;;;;;5053220;28;20224;-69
2023/12/13 07:25:17;;;;;;;2.60;1.10;;;10.00;99.90;;;;;;5052570;28;20545;-69
2023/12/13 07:27:43;;;;;;;4.60;0.97;;;9.90;99.90;;;;;;5042578;28;20743;-69
2023/12/13 07:30:09;;;;;;;3.20;1.53;;;9.80;99.90;;;;;;5030370;28;20249;-68
2023/12/13 07:32:34;;;;;;;2.10;0.80;;;9.90;99.90;;;;;;5032845;28;20170;-71
2023/12/13 07:35:00;;;;;;;2.20;1.10;;;9.80;99.90;;;;;;5033009;28;20175;-71
2023/12/13 07:37:26;;;;;;;2.43;0.90;;;9.70;99.90;;;;;;5040389;28;20264;-71
2023/12/13 07:39:52;;;;;;;1.47;0.70;;;9.80;99.90;;;;;;5052814;28;20279;-71
2023/12/13 07:42:18;;;;;;;1.43;0.73;;;9.90;99.90;;;;;;5052770;28;20453;-71
2023/12/13 07:44:45;;;;;;;2.90;1.03;;;9.90;99.90;;;;;;5053228;28;20211;-69
2023/12/13 07:47:12;;;;;;;1.73;0.80;;;9.90;99.90;;;;;;5048213;28;20218;-69
2023/12/13 07:49:38;;;;;;;1.73;1.07;;;10.00;99.90;;;;;;5052932;28;20426;-69
2023/12/13 07:52:06;;;;;;;3.67;1.00;;;10.10;99.90;;;;;;5055093;28;20404;-70
2023/12/13 07:54:34;;;;;;;2.50;1.33;;;10.10;99.90;;;;;;5037719;28;20545;-70
2023/12/13 07:57:00;;;;;;;1.00;0.80;;;10.00;99.90;;;;;;5020245;28;20411;-69
2023/12/13 07:59:26;;;;;;;1.50;1.03;;;10.20;99.90;;;;;;5052985;28;20500;-71
2023/12/13 08:01:51;;;;;;;1.33;0.90;;;10.20;99.90;;;;;;5052532;28;20170;-72
2023/12/13 08:04:17;;;;;;;1.67;0.80;;;10.30;99.90;;;;;;5052644;28;20176;-72
2023/12/13 08:06:42;;;;;;;1.83;0.93;;;10.30;99.90;;;;;;5051408;28;20182;-73
2023/12/13 08:09:11;;;;;;;2.33;0.90;;;10.30;99.90;;;;;;5032656;28;20168;-71
2023/12/13 08:11:37;;;;;;;1.60;1.03;;;10.20;99.90;;;;;;5032959;28;20250;-70
2023/12/13 08:14:03;;;;;;;1.27;1.03;;;10.30;99.90;;;;;;5032521;28;20401;-71
2023/12/13 08:16:29;;;;;;;2.00;1.30;;;10.30;99.90;;;;;;5032605;28;20438;-70
2023/12/13 08:18:55;;;;;;;2.27;1.00;;;10.40;99.90;;;;;;5051621;28;20440;-71
2023/12/13 08:21:21;;;;;;;1.67;1.10;;;10.30;99.90;;;;;;5052898;28;20260;-74
2023/12/13 08:23:47;;;;;;;2.17;0.90;;;10.30;99.90;;;;;;5052712;28;20541;-73
2023/12/13 08:26:12;;;;;;;2.23;1.00;;;10.30;99.90;;;;;;5052387;28;20423;-72
2023/12/13 08:28:38;;;;;;;2.03;1.07;;;10.30;99.90;;;;;;5035961;28;20176;-71
2023/12/13 08:31:04;;;;;;;1.50;1.10;;;10.30;99.90;;;;;;5032564;28;20612;-73
2023/12/13 08:33:30;;;;;;;2.20;1.00;;;10.30;99.90;;;;;;5032756;28;20456;-72
2023/12/13 08:35:56;;;;;;;2.70;1.10;;;10.30;99.90;;;;;;5033106;28;20644;-73
2023/12/13 08:38:23;;;;;;;3.03;1.10;;;10.30;99.90;;;;;;5046757;28;20444;-74
2023/12/13 08:40:48;;;;;;;2.20;1.33;;;10.40;99.90;;;;;;5050849;28;20663;-72
2023/12/13 08:43:14;;;;;;;1.70;1.00;;;10.40;99.90;;;;;;5052162;28;20488;-73
2023/12/13 08:45:41;;;;;;;1.77;1.27;;;10.50;99.90;;;;;;5054260;28;20181;-75
2023/12/13 08:48:07;;;;;;;1.90;1.20;;;10.50;99.90;;;;;;5043686;28;20545;-74
2023/12/13 08:50:33;;;;;;;2.80;1.40;;;10.40;99.90;;;;;;5036267;28;20764;-72
2023/12/13 08:52:59;;;;;;;4.10;1.30;;;10.30;99.90;;;;;;5035948;28;20417;-72
2023/12/13 08:55:24;;;;;;;4.37;1.20;;;10.10;99.90;;;;;;5035853;28;20783;-72
2023/12/13 08:57:50;;;;;;;3.63;1.43;;;10.20;99.90;;;;;;5045220;28;20199;-72
2023/12/13 09:00:16;;;;;;;2.53;0.80;;;10.00;99.90;;;;;;5056121;28;20176;-72
2023/12/13 09:02:41;;;;;;;3.80;1.43;;;10.00;99.90;;;;;;5056177;28;20175;-72
2023/12/13 09:05:07;;;;;;;2.43;1.17;;;10.00;99.90;;;;;;5055780;28;20247;-73
2023/12/13 09:07:33;;;;;;;1.73;1.27;;;10.10;99.90;;;;;;5048543;28;20196;-72
2023/12/13 09:09:58;;;;;;;1.90;1.10;;;10.10;99.90;;;;;;5035734;28;20414;-71
2023/12/13 09:12:24;;;;;;;1.47;1.00;;;10.10;99.90;;;;;;5035663;28;20695;-71
2023/12/13 09:14:50;;;;;;;2.40;1.20;;;10.30;99.90;;;;;;5035911;28;20169;-71
2023/12/13 09:17:15;;;;;;;1.73;1.30;;;10.50;99.90;;;;;;5040041;28;20201;-71
2023/12/13 09:19:40;;;;;;;2.27;1.70;;;10.50;99.90;;;;;;5055584;28;20261;-70
2023/12/13 09:22:06;;;;;;;3.27;1.57;;;10.60;99.90;;;;;;5055307;28;20308;-70
2023/12/13 09:24:32;;;;;;;4.40;1.23;;;10.60;99.90;;;;;;5055466;28;20261;-73
2023/12/13 09:26:58;;;;;;;2.13;1.20;;;10.80;99.90;;;;;;5053523;28;20213;-71
2023/12/13 09:29:23;;;;;;;3.37;1.37;;;10.90;99.90;;;;;;5035650;28;20180;-71
2023/12/13 09:31:49;;;;;;;6.07;1.67;;;11.00;99.90;;;;;;5035604;28;20911;-71
2023/12/13 09:34:14;;;;;;;5.10;1.80;;;11.00;99.90;;;;;;5035341;28;20266;-72
2023/12/13 09:36:40;;;;;;;5.30;1.70;;;10.90;99.90;;;;;;5035704;28;20199;-72
2023/12/13 09:39:06;;;;;;;2.60;1.50;;;11.00;99.90;;;;;;5054523;28;20586;-73
2023/12/13 09:42:02;;;;;;;3.40;1.70;;;11.00;99.90;;;;;;5055225;28;20221;-72
2023/12/13 09:44:29;;;;;;;2.30;1.20;;;11.10;99.90;;;;;;5054438;28;20166;-72
2023/12/13 09:46:58;;;;;;;3.17;1.67;;;11.10;99.90;;;;;;5017310;28;20519;-74
2023/12/13 09:49:26;;;;;;;3.73;1.40;;;11.20;99.90;;;;;;5015418;28;20422;-72
2023/12/13 09:51:54;;;;;;;1.90;1.13;;;11.20;99.90;;;;;;5027464;28;20412;-73
2023/12/13 09:54:20;;;;;;;2.63;1.80;;;11.20;99.90;;;;;;5046376;28;20421;-72
2023/12/13 09:56:45;;;;;;;2.40;1.57;;;11.20;99.90;;;;;;5053685;28;20946;-73
2023/12/13 09:59:11;;;;;;;2.40;1.53;;;11.10;99.90;;;;;;5034628;28;20449;-73
2023/12/13 10:01:37;;;;;;;4.70;1.27;;;11.10;99.90;;;;;;5034730;28;20674;-73
2023/12/13 10:04:04;;;;;;;4.90;1.40;;;11.10;99.90;;;;;;5034871;28;20213;-73
2023/12/13 10:06:31;;;;;;;3.20;1.17;;;11.20;99.90;;;;;;5034893;28;20238;-72
2023/12/13 10:08:57;;;;;;;2.90;1.27;;;11.20;99.90;;;;;;5052291;28;20418;-73
2023/12/13 10:11:23;;;;;;;7.03;1.73;;;11.10;99.90;;;;;;5053162;28;20422;-73
2023/12/13 10:13:49;;;;;;;3.43;1.30;;;11.10;99.90;;;;;;5054764;28;20171;-73
2023/12/13 10:16:16;;;;;;;2.80;1.50;;;11.20;99.90;;;;;;5054554;28;20406;-73
2023/12/13 10:18:42;;;;;;;3.93;3.03;;;11.20;99.90;;;;;;5038907;28;20199;-73
2023/12/13 10:21:12;;;;;;;4.90;2.13;;;11.20;99.90;;;;;;5034618;28;20405;-73
2023/12/13 10:23:41;;;;;;;2.80;1.50;;;11.50;99.90;;;;;;5034375;28;20206;-73
2023/12/13 10:26:09;;;;;;;2.90;1.63;;;11.60;99.90;;;;;;5035092;28;20461;-73
2023/12/13 10:28:37;;;;;;;2.57;1.40;;;11.60;99.90;;;;;;5054729;28;20414;-71
2023/12/13 10:31:06;;;;;;;3.13;1.70;;;11.70;99.90;;;;;;5054390;28;20397;-72
2023/12/13 10:33:31;;;;;;;2.77;1.53;;;11.80;99.90;;;;;;5054079;28;20900;-71
2023/12/13 10:35:59;;;;;;;3.23;1.40;;;11.70;99.90;;;;;;5054552;28;20406;-71
2023/12/13 10:38:26;;;;;;;5.93;2.03;;;11.80;99.90;;;;;;5036115;28;20200;-71
2023/12/13 10:40:52;;;;;;;2.73;1.30;;;11.70;99.90;;;;;;5054178;28;20766;-71
2023/12/13 10:43:19;;;;;;;3.13;1.63;;;11.90;99.90;;;;;;5054137;28;20934;-71
2023/12/13 10:45:55;;;;;;;2.53;1.40;;;11.90;99.90;;;;;;5036273;28;20408;-71
2023/12/13 10:48:24;;;;;;;2.83;1.70;;;12.20;99.90;;;;;;5053802;28;20433;-72
2023/12/13 10:50:50;;;;;;;2.63;1.57;;;12.40;99.90;;;;;;5053609;28;20416;-71
2023/12/13 10:53:18;;;;;;;2.57;2.10;;;12.50;99.90;;;;;;5053933;28;20445;-71
2023/12/13 10:55:45;;;;;;;3.73;1.87;;;12.70;99.90;;;;;;5035495;28;20419;-71
2023/12/13 10:58:12;;;;;;;1.97;1.40;;;13.40;99.90;;;;;;5053005;28;20498;-71
2023/12/13 11:00:39;;;;;;;3.23;1.50;;;14.90;99.90;;;;;;5053526;28;20918;-71
2023/12/13 11:03:17;;;;;;;2.63;1.30;;;16.60;99.90;;;;;;5053511;28;20411;-71
2023/12/13 11:05:43;;;;;;;2.40;1.30;;;18.50;99.90;;;;;;5053463;28;20393;-71
2023/12/13 11:08:22;;;;;;;1.87;1.20;;;18.70;99.90;;;;;;5052936;28;20440;-72
2023/12/13 11:11:14;;;;;;;1.90;1.30;;;18.70;99.90;;;;;;5053658;28;20213;-71
2023/12/13 11:13:51;;;;;;;1.97;1.20;;;16.30;99.90;;;;;;5049698;28;20821;-71
2023/12/13 11:16:22;;;;;;;3.47;1.17;;;15.90;99.90;;;;;;5035087;28;20441;-71
2023/12/13 11:18:50;;;;;;;1.87;1.13;;;16.30;99.90;;;;;;5053134;28;20460;-71
2023/12/13 11:21:26;;;;;;;3.70;1.23;;;18.10;99.90;;;;;;5053227;28;20973;-71
2023/12/13 11:23:52;;;;;;;3.60;1.30;;;20.20;99.90;;;;;;5053478;28;20405;-71
2023/12/13 11:26:19;;;;;;;2.60;1.20;;;21.50;99.90;;;;;;5053056;28;20416;-71
2023/12/13 11:28:50;;;;;;;1.63;1.30;;;22.30;98.30;;;;;;5052879;28;20401;-71
2023/12/13 11:31:24;;;;;;;2.57;1.33;;;23.40;95.70;;;;;;5053312;28;20477;-72
2023/12/13 11:33:53;;;;;;;1.30;0.80;;;24.00;93.50;;;;;;5053401;28;20397;-72
2023/12/13 11:36:24;;;;;;;2.60;1.40;;;23.60;92.00;;;;;;5048160;28;20442;-72
2023/12/13 11:38:54;;;;;;;2.33;1.10;;;21.10;93.20;;;;;;5044015;28;20445;-70
2023/12/13 11:41:20;;;;;;;1.50;1.10;;;19.20;96.80;;;;;;5052679;28;20397;-71
2023/12/13 11:43:46;;;;;;;2.47;1.00;;;17.50;99.10;;;;;;5052624;28;20406;-71
2023/12/13 11:46:14;;;;;;;1.53;0.90;;;16.40;99.90;;;;;;5052431;28;20258;-71
2023/12/13 11:48:43;;;;;;;1.93;1.07;;;15.70;99.90;;;;;;5052796;28;20492;-71
2023/12/13 11:51:09;;;;;;;2.13;1.40;;;15.40;99.90;;;;;;5052979;28;20401;-71
2023/12/13 11:53:34;;;;;;;2.97;1.53;;;15.40;99.90;;;;;;5052752;28;20808;-71
2023/12/13 11:56:00;;;;;;;4.83;1.67;;;14.90;99.90;;;;;;5052290;28;20504;-71
2023/12/13 11:58:30;;;;;;;3.10;1.43;;;14.60;99.90;;;;;;5052576;28;20271;-71
2023/12/13 12:00:58;;;;;;;2.53;1.40;;;14.50;99.90;;;;;;5053280;28;20194;-71
2023/12/13 12:03:24;;;;;;;2.67;1.20;;;14.30;99.90;;;;;;5053098;28;20490;-71
2023/12/13 12:05:49;;;;;;;1.63;1.23;;;14.20;99.90;;;;;;5053000;28;20428;-71
2023/12/13 12:08:15;;;;;;;2.00;1.20;;;14.40;99.90;;;;;;5052845;28;20197;-71
2023/12/13 12:10:42;;;;;;;1.87;1.20;;;14.40;99.90;;;;;;5052858;28;20181;-74
2023/12/13 12:13:07;;;;;;;2.70;1.53;;;14.60;99.90;;;;;;5053159;28;20197;-74
2023/12/13 12:15:33;;;;;;;1.67;1.17;;;15.00;99.90;;;;;;5052599;28;20412;-73
2023/12/13 12:18:00;;;;;;;2.30;1.17;;;14.90;99.90;;;;;;5052573;28;20200;-73
2023/12/13 12:20:26;;;;;;;1.73;1.07;;;14.80;99.90;;;;;;5054036;28;20233;-70
2023/12/13 12:22:52;;;;;;;1.23;0.70;;;14.50;99.90;;;;;;5056796;28;20898;-70
2023/12/13 12:25:18;;;;;;;2.50;1.13;;;15.30;99.90;;;;;;5056458;28;20416;-70
2023/12/13 12:27:48;;;;;;;2.50;0.87;;;16.50;99.90;;;;;;5056135;28;20213;-69
2023/12/13 12:30:15;;;;;;;2.00;1.20;;;16.90;99.90;;;;;;5038373;28;20424;-69
2023/12/13 12:32:41;;;;;;;1.10;0.80;;;16.80;99.90;;;;;;5056195;28;20495;-70
2023/12/13 12:35:07;;;;;;;1.63;0.97;;;16.10;99.90;;;;;;5056299;28;20978;-72
2023/12/13 12:37:32;;;;;;;1.40;0.80;;;15.90;99.90;;;;;;5056065;28;20272;-71
2023/12/13 12:39:58;;;;;;;2.30;1.10;;;16.00;99.90;;;;;;5056180;28;20492;-71
2023/12/13 12:42:23;;;;;;;3.00;1.20;;;15.90;99.90;;;;;;5056045;28;20240;-69
2023/12/13 12:44:49;;;;;;;2.27;1.23;;;15.60;99.90;;;;;;5056106;28;20184;-69
2023/12/13 12:47:15;;;;;;;1.53;1.30;;;15.30;99.90;;;;;;5056418;28;20197;-70
2023/12/13 12:49:40;;;;;;;2.30;1.30;;;15.10;99.90;;;;;;5056172;28;20208;-70